sensor_id;sensor_type;location;lat;lon;timestamp;P1;durP1;ratioP1;P2;durP2;ratioP2
8982;SDS011;20979;59.850;10.660;2023-11-18T00:01:32;6.40;;;4.47;;
8982;SDS011;20979;59.850;10.660;2023-11-18T00:03:59;5.90;;;3.87;;
8982;SDS011;20979;59.850;10.660;2023-11-18T00:06:27;6.53;;;3.77;;
8982;SDS011;20979;59.850;10.660;2023-11-18T00:08:54;5.63;;;3.83;;
8982;SDS011;20979;59.850;10.660;2023-11-18T00:11:21;4.73;;;3.73;;
8982;SDS011;20979;59.850;10.660;2023-11-18T00:13:49;6.03;;;4.00;;
8982;SDS011;20979;59.850;10.660;2023-11-18T00:16:16;5.33;;;3.83;;
8982;SDS011;20979;59.850;10.660;2023-11-18T00:18:45;8.17;;;4.37;;
8982;SDS011;20979;59.850;10.660;2023-11-18T00:21:13;6.87;;;4.13;;
8982;SDS011;20979;59.850;10.660;2023-11-18T00:23:40;6.33;;;4.33;;
8982;SDS011;20979;59.850;10.660;2023-11-18T00:26:08;6.27;;;4.10;;
8982;SDS011;20979;59.850;10.660;2023-11-18T00:28:35;6.30;;;3.90;;
8982;SDS011;20979;59.850;10.660;2023-11-18T00:31:03;5.57;;;3.97;;
8982;SDS011;20979;59.850;10.660;2023-11-18T00:33:30;4.87;;;3.90;;
8982;SDS011;20979;59.850;10.660;2023-11-18T00:35:59;5.37;;;3.80;;
8982;SDS011;20979;59.850;10.660;2023-11-18T00:38:27;6.13;;;4.07;;
8982;SDS011;20979;59.850;10.660;2023-11-18T00:40:55;4.27;;;3.70;;
8982;SDS011;20979;59.850;10.660;2023-11-18T00:43:22;4.40;;;3.30;;
8982;SDS011;20979;59.850;10.660;2023-11-18T00:45:50;4.57;;;3.13;;
8982;SDS011;20979;59.850;10.660;2023-11-18T00:48:17;4.30;;;3.27;;
8982;SDS011;20979;59.850;10.660;2023-11-18T00:50:45;4.73;;;3.27;;
8982;SDS011;20979;59.850;10.660;2023-11-18T00:53:13;5.87;;;3.77;;
8982;SDS011;20979;59.850;10.660;2023-11-18T00:55:41;4.30;;;3.27;;
8982;SDS011;20979;59.850;10.660;2023-11-18T00:58:08;4.77;;;3.60;;
8982;SDS011;20979;59.850;10.660;2023-11-18T01:00:35;5.53;;;3.57;;
8982;SDS011;20979;59.850;10.660;2023-11-18T01:03:02;5.37;;;3.27;;
8982;SDS011;20979;59.850;10.660;2023-11-18T01:05:30;5.70;;;3.80;;
8982;SDS011;20979;59.850;10.660;2023-11-18T01:07:58;4.23;;;3.20;;
8982;SDS011;20979;59.850;10.660;2023-11-18T01:10:26;5.47;;;3.07;;
8982;SDS011;20979;59.850;10.660;2023-11-18T01:12:54;3.87;;;2.97;;
8982;SDS011;20979;59.850;10.660;2023-11-18T01:15:23;3.77;;;2.97;;
8982;SDS011;20979;59.850;10.660;2023-11-18T01:17:50;3.47;;;2.77;;
8982;SDS011;20979;59.850;10.660;2023-11-18T01:20:17;4.20;;;3.13;;
8982;SDS011;20979;59.850;10.660;2023-11-18T01:22:47;3.60;;;2.83;;
8982;SDS011;20979;59.850;10.660;2023-11-18T01:25:15;3.00;;;2.70;;
8982;SDS011;20979;59.850;10.660;2023-11-18T01:27:45;3.17;;;2.60;;
8982;SDS011;20979;59.850;10.660;2023-11-18T01:30:13;3.00;;;2.70;;
8982;SDS011;20979;59.850;10.660;2023-11-18T01:32:40;3.17;;;2.80;;
8982;SDS011;20979;59.850;10.660;2023-11-18T01:35:08;3.00;;;2.67;;
8982;SDS011;20979;59.850;10.660;2023-11-18T01:37:37;3.33;;;2.40;;
8982;SDS011;20979;59.850;10.660;2023-11-18T01:40:05;2.90;;;2.50;;
8982;SDS011;20979;59.850;10.660;2023-11-18T01:42:33;4.13;;;2.60;;
8982;SDS011;20979;59.850;10.660;2023-11-18T01:45:02;2.47;;;2.27;;
8982;SDS011;20979;59.850;10.660;2023-11-18T01:47:31;3.77;;;2.30;;
8982;SDS011;20979;59.850;10.660;2023-11-18T01:49:59;4.30;;;2.70;;
8982;SDS011;20979;59.850;10.660;2023-11-18T01:52:27;3.00;;;2.70;;
8982;SDS011;20979;59.850;10.660;2023-11-18T01:54:55;3.40;;;2.47;;
8982;SDS011;20979;59.850;10.660;2023-11-18T01:57:22;4.80;;;2.63;;
8982;SDS011;20979;59.850;10.660;2023-11-18T01:59:51;5.20;;;2.50;;
8982;SDS011;20979;59.850;10.660;2023-11-18T02:02:20;2.60;;;2.40;;
8982;SDS011;20979;59.850;10.660;2023-11-18T02:04:48;3.27;;;2.43;;
8982;SDS011;20979;59.850;10.660;2023-11-18T02:07:15;2.93;;;2.60;;
8982;SDS011;20979;59.850;10.660;2023-11-18T02:09:43;3.30;;;2.40;;
8982;SDS011;20979;59.850;10.660;2023-11-18T02:12:14;2.60;;;2.40;;
8982;SDS011;20979;59.850;10.660;2023-11-18T02:14:43;3.37;;;2.50;;
8982;SDS011;20979;59.850;10.660;2023-11-18T02:17:12;3.40;;;2.70;;
8982;SDS011;20979;59.850;10.660;2023-11-18T02:19:42;2.53;;;2.33;;
8982;SDS011;20979;59.850;10.660;2023-11-18T02:22:10;3.80;;;2.43;;
8982;SDS011;20979;59.850;10.660;2023-11-18T02:24:38;2.83;;;2.60;;
8982;SDS011;20979;59.850;10.660;2023-11-18T02:27:07;3.83;;;2.50;;
8982;SDS011;20979;59.850;10.660;2023-11-18T02:29:37;3.83;;;2.57;;
8982;SDS011;20979;59.850;10.660;2023-11-18T02:32:08;3.53;;;2.90;;
8982;SDS011;20979;59.850;10.660;2023-11-18T02:34:36;4.63;;;3.07;;
8982;SDS011;20979;59.850;10.660;2023-11-18T02:37:08;3.27;;;2.77;;
8982;SDS011;20979;59.850;10.660;2023-11-18T02:39:39;5.07;;;2.90;;
8982;SDS011;20979;59.850;10.660;2023-11-18T02:42:09;3.10;;;2.70;;
8982;SDS011;20979;59.850;10.660;2023-11-18T02:44:37;3.90;;;2.80;;
8982;SDS011;20979;59.850;10.660;2023-11-18T02:47:06;4.33;;;2.70;;
8982;SDS011;20979;59.850;10.660;2023-11-18T02:49:35;3.57;;;2.70;;
8982;SDS011;20979;59.850;10.660;2023-11-18T02:52:02;3.40;;;2.80;;
8982;SDS011;20979;59.850;10.660;2023-11-18T02:54:30;2.57;;;2.20;;
8982;SDS011;20979;59.850;10.660;2023-11-18T02:56:57;2.80;;;2.50;;
8982;SDS011;20979;59.850;10.660;2023-11-18T02:59:26;4.87;;;2.60;;
8982;SDS011;20979;59.850;10.660;2023-11-18T03:01:56;3.90;;;2.70;;
8982;SDS011;20979;59.850;10.660;2023-11-18T03:04:23;6.87;;;3.10;;
8982;SDS011;20979;59.850;10.660;2023-11-18T03:06:51;7.03;;;3.37;;
8982;SDS011;20979;59.850;10.660;2023-11-18T03:09:18;6.13;;;3.50;;
8982;SDS011;20979;59.850;10.660;2023-11-18T03:11:46;5.87;;;3.47;;
8982;SDS011;20979;59.850;10.660;2023-11-18T03:14:16;4.20;;;2.70;;
8982;SDS011;20979;59.850;10.660;2023-11-18T03:16:46;4.13;;;3.03;;
8982;SDS011;20979;59.850;10.660;2023-11-18T03:19:13;3.63;;;2.63;;
8982;SDS011;20979;59.850;10.660;2023-11-18T03:21:40;4.07;;;2.67;;
8982;SDS011;20979;59.850;10.660;2023-11-18T03:24:08;4.60;;;2.90;;
8982;SDS011;20979;59.850;10.660;2023-11-18T03:26:36;3.73;;;2.80;;
8982;SDS011;20979;59.850;10.660;2023-11-18T03:29:03;3.57;;;2.87;;
8982;SDS011;20979;59.850;10.660;2023-11-18T03:31:30;6.80;;;2.90;;
8982;SDS011;20979;59.850;10.660;2023-11-18T03:34:00;3.70;;;2.83;;
8982;SDS011;20979;59.850;10.660;2023-11-18T03:36:27;3.90;;;2.70;;
8982;SDS011;20979;59.850;10.660;2023-11-18T03:38:54;3.93;;;3.00;;
8982;SDS011;20979;59.850;10.660;2023-11-18T03:41:21;3.87;;;2.73;;
8982;SDS011;20979;59.850;10.660;2023-11-18T03:43:49;3.50;;;2.90;;
8982;SDS011;20979;59.850;10.660;2023-11-18T03:46:16;3.20;;;2.90;;
8982;SDS011;20979;59.850;10.660;2023-11-18T03:48:43;2.70;;;2.50;;
8982;SDS011;20979;59.850;10.660;2023-11-18T03:51:12;3.87;;;3.00;;
8982;SDS011;20979;59.850;10.660;2023-11-18T03:53:41;5.93;;;3.17;;
8982;SDS011;20979;59.850;10.660;2023-11-18T03:56:09;3.30;;;2.73;;
8982;SDS011;20979;59.850;10.660;2023-11-18T03:58:36;4.53;;;2.93;;
8982;SDS011;20979;59.850;10.660;2023-11-18T04:01:05;3.20;;;2.90;;
8982;SDS011;20979;59.850;10.660;2023-11-18T04:03:36;4.73;;;2.70;;
8982;SDS011;20979;59.850;10.660;2023-11-18T04:06:03;3.33;;;2.83;;
8982;SDS011;20979;59.850;10.660;2023-11-18T04:08:34;3.27;;;2.70;;
8982;SDS011;20979;59.850;10.660;2023-11-18T04:11:02;3.27;;;2.67;;
8982;SDS011;20979;59.850;10.660;2023-11-18T04:13:29;2.80;;;2.50;;
8982;SDS011;20979;59.850;10.660;2023-11-18T04:15:56;3.20;;;2.90;;
8982;SDS011;20979;59.850;10.660;2023-11-18T04:18:24;4.00;;;3.00;;
8982;SDS011;20979;59.850;10.660;2023-11-18T04:20:51;2.80;;;2.50;;
8982;SDS011;20979;59.850;10.660;2023-11-18T04:23:19;3.13;;;2.83;;
8982;SDS011;20979;59.850;10.660;2023-11-18T04:25:47;3.67;;;2.90;;
8982;SDS011;20979;59.850;10.660;2023-11-18T04:28:15;2.80;;;2.60;;
8982;SDS011;20979;59.850;10.660;2023-11-18T04:30:43;2.97;;;2.77;;
8982;SDS011;20979;59.850;10.660;2023-11-18T04:33:10;3.43;;;2.93;;
8982;SDS011;20979;59.850;10.660;2023-11-18T04:35:39;2.90;;;2.50;;
8982;SDS011;20979;59.850;10.660;2023-11-18T04:38:06;3.30;;;2.60;;
8982;SDS011;20979;59.850;10.660;2023-11-18T04:40:34;3.10;;;2.67;;
8982;SDS011;20979;59.850;10.660;2023-11-18T04:43:05;3.33;;;2.80;;
8982;SDS011;20979;59.850;10.660;2023-11-18T04:45:33;3.20;;;2.50;;
8982;SDS011;20979;59.850;10.660;2023-11-18T04:48:00;3.17;;;2.60;;
8982;SDS011;20979;59.850;10.660;2023-11-18T04:50:28;4.13;;;3.37;;
8982;SDS011;20979;59.850;10.660;2023-11-18T04:52:57;4.40;;;4.00;;
8982;SDS011;20979;59.850;10.660;2023-11-18T04:55:24;6.30;;;4.57;;
8982;SDS011;20979;59.850;10.660;2023-11-18T04:57:52;4.80;;;4.30;;
8982;SDS011;20979;59.850;10.660;2023-11-18T05:00:21;6.27;;;4.70;;
8982;SDS011;20979;59.850;10.660;2023-11-18T05:02:48;5.70;;;4.70;;
8982;SDS011;20979;59.850;10.660;2023-11-18T05:05:16;6.23;;;3.87;;
8982;SDS011;20979;59.850;10.660;2023-11-18T05:07:43;4.73;;;2.93;;
8982;SDS011;20979;59.850;10.660;2023-11-18T05:10:10;3.93;;;3.40;;
8982;SDS011;20979;59.850;10.660;2023-11-18T05:12:38;3.40;;;3.10;;
8982;SDS011;20979;59.850;10.660;2023-11-18T05:15:08;3.80;;;3.00;;
8982;SDS011;20979;59.850;10.660;2023-11-18T05:17:37;3.57;;;2.90;;
8982;SDS011;20979;59.850;10.660;2023-11-18T05:20:05;3.60;;;3.17;;
8982;SDS011;20979;59.850;10.660;2023-11-18T05:22:34;3.87;;;3.07;;
8982;SDS011;20979;59.850;10.660;2023-11-18T05:25:01;3.20;;;2.90;;
8982;SDS011;20979;59.850;10.660;2023-11-18T05:27:29;3.23;;;2.93;;
8982;SDS011;20979;59.850;10.660;2023-11-18T05:29:56;3.30;;;2.83;;
8982;SDS011;20979;59.850;10.660;2023-11-18T05:32:26;3.70;;;3.20;;
8982;SDS011;20979;59.850;10.660;2023-11-18T05:34:55;3.10;;;2.87;;
8982;SDS011;20979;59.850;10.660;2023-11-18T05:37:23;3.53;;;3.10;;
8982;SDS011;20979;59.850;10.660;2023-11-18T05:39:53;3.73;;;3.30;;
8982;SDS011;20979;59.850;10.660;2023-11-18T05:42:24;3.10;;;2.83;;
8982;SDS011;20979;59.850;10.660;2023-11-18T05:44:51;3.17;;;2.90;;
8982;SDS011;20979;59.850;10.660;2023-11-18T05:47:24;3.07;;;2.87;;
8982;SDS011;20979;59.850;10.660;2023-11-18T05:49:52;4.53;;;3.07;;
8982;SDS011;20979;59.850;10.660;2023-11-18T05:52:21;4.00;;;3.10;;
8982;SDS011;20979;59.850;10.660;2023-11-18T05:54:49;3.20;;;2.83;;
8982;SDS011;20979;59.850;10.660;2023-11-18T05:57:16;4.07;;;2.87;;
8982;SDS011;20979;59.850;10.660;2023-11-18T05:59:43;3.20;;;2.90;;
8982;SDS011;20979;59.850;10.660;2023-11-18T06:02:13;3.33;;;2.97;;
8982;SDS011;20979;59.850;10.660;2023-11-18T06:04:43;4.50;;;3.30;;
8982;SDS011;20979;59.850;10.660;2023-11-18T06:07:10;4.47;;;3.40;;
8982;SDS011;20979;59.850;10.660;2023-11-18T06:09:41;3.87;;;3.23;;
8982;SDS011;20979;59.850;10.660;2023-11-18T06:12:08;4.57;;;3.60;;
8982;SDS011;20979;59.850;10.660;2023-11-18T06:14:36;4.00;;;3.50;;
8982;SDS011;20979;59.850;10.660;2023-11-18T06:17:03;3.90;;;3.50;;
8982;SDS011;20979;59.850;10.660;2023-11-18T06:19:33;3.67;;;3.20;;
8982;SDS011;20979;59.850;10.660;2023-11-18T06:22:01;3.80;;;3.37;;
8982;SDS011;20979;59.850;10.660;2023-11-18T06:24:28;3.57;;;3.07;;
8982;SDS011;20979;59.850;10.660;2023-11-18T06:26:56;3.53;;;3.23;;
8982;SDS011;20979;59.850;10.660;2023-11-18T06:29:24;3.50;;;3.20;;
8982;SDS011;20979;59.850;10.660;2023-11-18T06:31:54;3.30;;;2.93;;
8982;SDS011;20979;59.850;10.660;2023-11-18T06:34:22;3.10;;;2.73;;
8982;SDS011;20979;59.850;10.660;2023-11-18T06:36:52;2.93;;;2.60;;
8982;SDS011;20979;59.850;10.660;2023-11-18T06:39:21;3.13;;;2.83;;
8982;SDS011;20979;59.850;10.660;2023-11-18T06:41:56;2.43;;;2.23;;
8982;SDS011;20979;59.850;10.660;2023-11-18T06:44:23;3.10;;;2.00;;
8982;SDS011;20979;59.850;10.660;2023-11-18T06:46:50;2.80;;;2.20;;
8982;SDS011;20979;59.850;10.660;2023-11-18T06:49:18;3.83;;;2.50;;
8982;SDS011;20979;59.850;10.660;2023-11-18T06:51:45;2.50;;;2.30;;
8982;SDS011;20979;59.850;10.660;2023-11-18T06:54:12;2.40;;;2.20;;
8982;SDS011;20979;59.850;10.660;2023-11-18T06:56:40;2.60;;;2.40;;
8982;SDS011;20979;59.850;10.660;2023-11-18T06:59:10;2.53;;;2.23;;
8982;SDS011;20979;59.850;10.660;2023-11-18T07:01:37;2.80;;;2.60;;
8982;SDS011;20979;59.850;10.660;2023-11-18T07:04:06;3.40;;;2.30;;
8982;SDS011;20979;59.850;10.660;2023-11-18T07:06:34;3.00;;;2.50;;
8982;SDS011;20979;59.850;10.660;2023-11-18T07:09:03;2.40;;;2.20;;
8982;SDS011;20979;59.850;10.660;2023-11-18T07:11:37;2.60;;;2.40;;
8982;SDS011;20979;59.850;10.660;2023-11-18T07:14:06;2.70;;;2.50;;
8982;SDS011;20979;59.850;10.660;2023-11-18T07:16:35;2.73;;;2.43;;
8982;SDS011;20979;59.850;10.660;2023-11-18T07:19:04;2.50;;;2.30;;
8982;SDS011;20979;59.850;10.660;2023-11-18T07:21:32;2.43;;;2.23;;
8982;SDS011;20979;59.850;10.660;2023-11-18T07:23:59;3.37;;;2.60;;
8982;SDS011;20979;59.850;10.660;2023-11-18T07:26:27;2.63;;;2.43;;
8982;SDS011;20979;59.850;10.660;2023-11-18T07:28:53;3.13;;;2.90;;
8982;SDS011;20979;59.850;10.660;2023-11-18T07:31:21;5.70;;;4.40;;
8982;SDS011;20979;59.850;10.660;2023-11-18T07:33:51;6.97;;;5.13;;
8982;SDS011;20979;59.850;10.660;2023-11-18T07:36:19;4.93;;;3.80;;
8982;SDS011;20979;59.850;10.660;2023-11-18T07:38:47;4.73;;;4.20;;
8982;SDS011;20979;59.850;10.660;2023-11-18T07:41:15;4.73;;;4.30;;
8982;SDS011;20979;59.850;10.660;2023-11-18T07:43:49;4.70;;;3.90;;
8982;SDS011;20979;59.850;10.660;2023-11-18T07:46:19;5.00;;;4.50;;
8982;SDS011;20979;59.850;10.660;2023-11-18T07:48:47;6.73;;;5.37;;
8982;SDS011;20979;59.850;10.660;2023-11-18T07:51:18;7.90;;;6.57;;
8982;SDS011;20979;59.850;10.660;2023-11-18T07:53:47;8.13;;;6.20;;
8982;SDS011;20979;59.850;10.660;2023-11-18T07:56:14;4.60;;;4.13;;
8982;SDS011;20979;59.850;10.660;2023-11-18T07:58:41;4.20;;;3.80;;
8982;SDS011;20979;59.850;10.660;2023-11-18T08:01:10;5.90;;;4.33;;
8982;SDS011;20979;59.850;10.660;2023-11-18T08:03:38;7.47;;;5.20;;
8982;SDS011;20979;59.850;10.660;2023-11-18T08:06:06;4.80;;;4.37;;
8982;SDS011;20979;59.850;10.660;2023-11-18T08:08:36;6.53;;;5.87;;
8982;SDS011;20979;59.850;10.660;2023-11-18T08:11:04;90.80;;;30.50;;
8982;SDS011;20979;59.850;10.660;2023-11-18T08:13:31;29.03;;;12.50;;
8982;SDS011;20979;59.850;10.660;2023-11-18T08:15:59;12.53;;;7.17;;
8982;SDS011;20979;59.850;10.660;2023-11-18T08:18:26;119.97;;;29.33;;
8982;SDS011;20979;59.850;10.660;2023-11-18T08:20:56;112.10;;;27.10;;
8982;SDS011;20979;59.850;10.660;2023-11-18T08:23:25;57.70;;;17.20;;
8982;SDS011;20979;59.850;10.660;2023-11-18T08:25:54;228.37;;;46.23;;
8982;SDS011;20979;59.850;10.660;2023-11-18T08:28:21;57.20;;;16.90;;
8982;SDS011;20979;59.850;10.660;2023-11-18T08:30:49;44.73;;;12.93;;
8982;SDS011;20979;59.850;10.660;2023-11-18T08:33:18;38.40;;;14.83;;
8982;SDS011;20979;59.850;10.660;2023-11-18T08:35:46;13.40;;;7.03;;
8982;SDS011;20979;59.850;10.660;2023-11-18T08:38:13;7.03;;;5.60;;
8982;SDS011;20979;59.850;10.660;2023-11-18T08:40:40;12.27;;;8.87;;
8982;SDS011;20979;59.850;10.660;2023-11-18T08:43:11;24.97;;;15.27;;
8982;SDS011;20979;59.850;10.660;2023-11-18T08:45:41;9.90;;;7.60;;
8982;SDS011;20979;59.850;10.660;2023-11-18T08:48:09;4.93;;;4.43;;
8982;SDS011;20979;59.850;10.660;2023-11-18T08:50:37;5.33;;;4.47;;
8982;SDS011;20979;59.850;10.660;2023-11-18T08:53:05;5.07;;;4.57;;
8982;SDS011;20979;59.850;10.660;2023-11-18T08:55:34;6.43;;;5.03;;
8982;SDS011;20979;59.850;10.660;2023-11-18T08:58:04;6.03;;;4.40;;
8982;SDS011;20979;59.850;10.660;2023-11-18T09:00:42;6.50;;;4.27;;
8982;SDS011;20979;59.850;10.660;2023-11-18T09:03:13;7.83;;;4.90;;
8982;SDS011;20979;59.850;10.660;2023-11-18T09:05:43;5.53;;;4.70;;
8982;SDS011;20979;59.850;10.660;2023-11-18T09:08:22;5.40;;;4.17;;
8982;SDS011;20979;59.850;10.660;2023-11-18T09:10:49;6.63;;;5.40;;
8982;SDS011;20979;59.850;10.660;2023-11-18T09:13:19;6.10;;;4.50;;
8982;SDS011;20979;59.850;10.660;2023-11-18T09:15:48;6.20;;;5.63;;
8982;SDS011;20979;59.850;10.660;2023-11-18T09:18:15;4.77;;;4.33;;
8982;SDS011;20979;59.850;10.660;2023-11-18T09:20:45;6.80;;;6.03;;
8982;SDS011;20979;59.850;10.660;2023-11-18T09:23:12;6.27;;;5.67;;
8982;SDS011;20979;59.850;10.660;2023-11-18T09:25:41;6.60;;;6.00;;
8982;SDS011;20979;59.850;10.660;2023-11-18T09:28:12;6.50;;;5.90;;
8982;SDS011;20979;59.850;10.660;2023-11-18T09:30:40;5.47;;;4.97;;
8982;SDS011;20979;59.850;10.660;2023-11-18T09:33:16;5.77;;;5.17;;
8982;SDS011;20979;59.850;10.660;2023-11-18T09:35:51;6.00;;;5.00;;
8982;SDS011;20979;59.850;10.660;2023-11-18T09:38:21;4.87;;;4.47;;
8982;SDS011;20979;59.850;10.660;2023-11-18T09:40:49;6.10;;;5.07;;
8982;SDS011;20979;59.850;10.660;2023-11-18T09:43:18;6.23;;;5.37;;
8982;SDS011;20979;59.850;10.660;2023-11-18T09:45:47;14.43;;;8.23;;
8982;SDS011;20979;59.850;10.660;2023-11-18T09:48:15;5.97;;;4.83;;
8982;SDS011;20979;59.850;10.660;2023-11-18T09:50:48;4.97;;;4.50;;
8982;SDS011;20979;59.850;10.660;2023-11-18T09:53:17;5.60;;;4.77;;
8982;SDS011;20979;59.850;10.660;2023-11-18T09:55:49;4.97;;;4.47;;
8982;SDS011;20979;59.850;10.660;2023-11-18T09:58:20;5.70;;;4.80;;
8982;SDS011;20979;59.850;10.660;2023-11-18T10:00:50;5.77;;;4.40;;
8982;SDS011;20979;59.850;10.660;2023-11-18T10:03:21;4.67;;;4.17;;
8982;SDS011;20979;59.850;10.660;2023-11-18T10:05:50;7.00;;;5.00;;
8982;SDS011;20979;59.850;10.660;2023-11-18T10:08:20;6.83;;;5.27;;
8982;SDS011;20979;59.850;10.660;2023-11-18T10:10:51;5.63;;;4.57;;
8982;SDS011;20979;59.850;10.660;2023-11-18T10:13:30;9.53;;;7.77;;
8982;SDS011;20979;59.850;10.660;2023-11-18T10:15:59;5.23;;;4.40;;
8982;SDS011;20979;59.850;10.660;2023-11-18T10:18:26;5.33;;;4.50;;
8982;SDS011;20979;59.850;10.660;2023-11-18T10:20:55;7.77;;;4.60;;
8982;SDS011;20979;59.850;10.660;2023-11-18T10:23:24;5.80;;;4.63;;
8982;SDS011;20979;59.850;10.660;2023-11-18T10:25:53;6.50;;;5.43;;
8982;SDS011;20979;59.850;10.660;2023-11-18T10:28:22;5.73;;;5.00;;
8982;SDS011;20979;59.850;10.660;2023-11-18T10:30:49;5.53;;;4.77;;
8982;SDS011;20979;59.850;10.660;2023-11-18T10:33:16;6.70;;;4.67;;
8982;SDS011;20979;59.850;10.660;2023-11-18T10:35:50;7.57;;;4.53;;
8982;SDS011;20979;59.850;10.660;2023-11-18T10:38:22;6.33;;;4.40;;
8982;SDS011;20979;59.850;10.660;2023-11-18T10:40:54;5.17;;;4.57;;
8982;SDS011;20979;59.850;10.660;2023-11-18T10:43:22;6.20;;;4.97;;
8982;SDS011;20979;59.850;10.660;2023-11-18T10:45:51;5.77;;;4.60;;
8982;SDS011;20979;59.850;10.660;2023-11-18T10:48:18;6.40;;;5.13;;
8982;SDS011;20979;59.850;10.660;2023-11-18T10:50:47;7.00;;;5.23;;
8982;SDS011;20979;59.850;10.660;2023-11-18T10:53:16;6.47;;;5.43;;
8982;SDS011;20979;59.850;10.660;2023-11-18T10:55:45;5.80;;;4.83;;
8982;SDS011;20979;59.850;10.660;2023-11-18T10:58:12;6.00;;;4.43;;
8982;SDS011;20979;59.850;10.660;2023-11-18T11:00:49;6.30;;;4.67;;
8982;SDS011;20979;59.850;10.660;2023-11-18T11:03:18;7.60;;;5.03;;
8982;SDS011;20979;59.850;10.660;2023-11-18T11:05:49;10.03;;;5.17;;
8982;SDS011;20979;59.850;10.660;2023-11-18T11:08:19;7.47;;;5.20;;
8982;SDS011;20979;59.850;10.660;2023-11-18T11:10:48;6.77;;;4.67;;
8982;SDS011;20979;59.850;10.660;2023-11-18T11:13:18;6.83;;;5.30;;
8982;SDS011;20979;59.850;10.660;2023-11-18T11:15:45;7.47;;;5.00;;
8982;SDS011;20979;59.850;10.660;2023-11-18T11:18:19;8.30;;;5.63;;
8982;SDS011;20979;59.850;10.660;2023-11-18T11:20:54;5.73;;;4.30;;
8982;SDS011;20979;59.850;10.660;2023-11-18T11:23:30;6.40;;;4.20;;
8982;SDS011;20979;59.850;10.660;2023-11-18T11:26:06;5.53;;;4.80;;
8982;SDS011;20979;59.850;10.660;2023-11-18T11:28:40;5.63;;;4.77;;
8982;SDS011;20979;59.850;10.660;2023-11-18T11:31:12;5.63;;;4.67;;
8982;SDS011;20979;59.850;10.660;2023-11-18T11:33:42;5.70;;;4.70;;
8982;SDS011;20979;59.850;10.660;2023-11-18T11:36:12;5.53;;;4.60;;
8982;SDS011;20979;59.850;10.660;2023-11-18T11:38:41;6.17;;;4.70;;
8982;SDS011;20979;59.850;10.660;2023-11-18T11:41:12;6.90;;;5.00;;
8982;SDS011;20979;59.850;10.660;2023-11-18T11:43:45;5.67;;;4.90;;
8982;SDS011;20979;59.850;10.660;2023-11-18T11:46:12;6.87;;;5.40;;
8982;SDS011;20979;59.850;10.660;2023-11-18T11:48:40;5.90;;;5.03;;
8982;SDS011;20979;59.850;10.660;2023-11-18T11:51:16;6.50;;;4.63;;
8982;SDS011;20979;59.850;10.660;2023-11-18T11:53:47;7.13;;;5.33;;
8982;SDS011;20979;59.850;10.660;2023-11-18T11:56:19;7.03;;;5.30;;
8982;SDS011;20979;59.850;10.660;2023-11-18T11:58:49;7.13;;;5.80;;
8982;SDS011;20979;59.850;10.660;2023-11-18T12:01:27;6.90;;;5.10;;
8982;SDS011;20979;59.850;10.660;2023-11-18T12:03:58;6.47;;;5.10;;
8982;SDS011;20979;59.850;10.660;2023-11-18T12:06:32;5.77;;;5.10;;
8982;SDS011;20979;59.850;10.660;2023-11-18T12:09:00;6.77;;;5.57;;
8982;SDS011;20979;59.850;10.660;2023-11-18T12:11:33;6.40;;;5.40;;
8982;SDS011;20979;59.850;10.660;2023-11-18T12:14:02;13.97;;;8.73;;
8982;SDS011;20979;59.850;10.660;2023-11-18T12:19:29;19.27;;;13.13;;
8982;SDS011;20979;59.850;10.660;2023-11-18T12:21:57;6.53;;;4.40;;
8982;SDS011;20979;59.850;10.660;2023-11-18T12:24:26;6.13;;;4.87;;
8982;SDS011;20979;59.850;10.660;2023-11-18T12:26:56;10.33;;;7.97;;
8982;SDS011;20979;59.850;10.660;2023-11-18T12:29:32;20.60;;;16.80;;
8982;SDS011;20979;59.850;10.660;2023-11-18T12:32:00;11.43;;;10.17;;
8982;SDS011;20979;59.850;10.660;2023-11-18T12:43:00;5.03;;;4.40;;
8982;SDS011;20979;59.850;10.660;2023-11-18T12:48:19;5.67;;;4.90;;
8982;SDS011;20979;59.850;10.660;2023-11-18T12:50:52;6.33;;;4.80;;
8982;SDS011;20979;59.850;10.660;2023-11-18T12:53:21;4.83;;;4.10;;
8982;SDS011;20979;59.850;10.660;2023-11-18T12:55:49;22.53;;;13.00;;
8982;SDS011;20979;59.850;10.660;2023-11-18T12:58:19;7.60;;;5.53;;
8982;SDS011;20979;59.850;10.660;2023-11-18T13:00:48;6.00;;;4.97;;
8982;SDS011;20979;59.850;10.660;2023-11-18T13:03:15;6.53;;;4.80;;
8982;SDS011;20979;59.850;10.660;2023-11-18T13:05:43;6.10;;;4.87;;
8982;SDS011;20979;59.850;10.660;2023-11-18T13:08:10;7.13;;;4.67;;
8982;SDS011;20979;59.850;10.660;2023-11-18T13:10:40;8.80;;;5.43;;
8982;SDS011;20979;59.850;10.660;2023-11-18T13:13:10;6.50;;;4.97;;
8982;SDS011;20979;59.850;10.660;2023-11-18T13:15:42;6.07;;;4.97;;
8982;SDS011;20979;59.850;10.660;2023-11-18T13:18:10;6.40;;;4.27;;
8982;SDS011;20979;59.850;10.660;2023-11-18T13:20:37;5.23;;;4.30;;
8982;SDS011;20979;59.850;10.660;2023-11-18T13:23:08;6.93;;;5.00;;
8982;SDS011;20979;59.850;10.660;2023-11-18T13:25:35;6.50;;;4.90;;
8982;SDS011;20979;59.850;10.660;2023-11-18T13:28:04;6.97;;;4.80;;
8982;SDS011;20979;59.850;10.660;2023-11-18T13:30:32;5.83;;;4.83;;
8982;SDS011;20979;59.850;10.660;2023-11-18T13:33:01;5.87;;;4.73;;
8982;SDS011;20979;59.850;10.660;2023-11-18T13:35:29;6.10;;;5.20;;
8982;SDS011;20979;59.850;10.660;2023-11-18T13:37:56;5.27;;;4.77;;
8982;SDS011;20979;59.850;10.660;2023-11-18T13:40:24;5.53;;;4.90;;
8982;SDS011;20979;59.850;10.660;2023-11-18T13:43:01;4.77;;;4.27;;
8982;SDS011;20979;59.850;10.660;2023-11-18T13:45:30;5.13;;;4.63;;
8982;SDS011;20979;59.850;10.660;2023-11-18T13:47:59;4.93;;;4.33;;
8982;SDS011;20979;59.850;10.660;2023-11-18T13:50:28;7.50;;;4.67;;
8982;SDS011;20979;59.850;10.660;2023-11-18T13:52:56;5.93;;;5.00;;
8982;SDS011;20979;59.850;10.660;2023-11-18T13:55:23;6.07;;;4.73;;
8982;SDS011;20979;59.850;10.660;2023-11-18T13:57:53;6.00;;;4.63;;
8982;SDS011;20979;59.850;10.660;2023-11-18T14:00:23;7.20;;;5.03;;
8982;SDS011;20979;59.850;10.660;2023-11-18T14:02:52;5.13;;;4.63;;
8982;SDS011;20979;59.850;10.660;2023-11-18T14:05:21;5.53;;;4.90;;
8982;SDS011;20979;59.850;10.660;2023-11-18T14:07:51;6.77;;;4.87;;
8982;SDS011;20979;59.850;10.660;2023-11-18T14:10:21;5.93;;;4.67;;
8982;SDS011;20979;59.850;10.660;2023-11-18T14:13:00;8.00;;;4.97;;
8982;SDS011;20979;59.850;10.660;2023-11-18T14:15:28;6.10;;;4.83;;
8982;SDS011;20979;59.850;10.660;2023-11-18T14:17:56;5.17;;;4.50;;
8982;SDS011;20979;59.850;10.660;2023-11-18T14:20:23;5.27;;;4.70;;
8982;SDS011;20979;59.850;10.660;2023-11-18T14:22:52;5.47;;;4.90;;
8982;SDS011;20979;59.850;10.660;2023-11-18T14:25:19;6.17;;;5.27;;
8982;SDS011;20979;59.850;10.660;2023-11-18T14:27:49;6.50;;;5.03;;
8982;SDS011;20979;59.850;10.660;2023-11-18T14:30:16;8.73;;;5.07;;
8982;SDS011;20979;59.850;10.660;2023-11-18T14:32:44;7.53;;;5.30;;
8982;SDS011;20979;59.850;10.660;2023-11-18T14:35:12;6.37;;;5.20;;
8982;SDS011;20979;59.850;10.660;2023-11-18T14:37:42;6.73;;;4.90;;
8982;SDS011;20979;59.850;10.660;2023-11-18T14:40:11;5.33;;;4.70;;
8982;SDS011;20979;59.850;10.660;2023-11-18T14:42:40;6.53;;;4.80;;
8982;SDS011;20979;59.850;10.660;2023-11-18T14:45:10;6.57;;;5.00;;
8982;SDS011;20979;59.850;10.660;2023-11-18T14:47:38;7.30;;;5.20;;
8982;SDS011;20979;59.850;10.660;2023-11-18T14:50:05;6.17;;;5.30;;
8982;SDS011;20979;59.850;10.660;2023-11-18T14:52:42;6.60;;;5.33;;
8982;SDS011;20979;59.850;10.660;2023-11-18T14:55:11;6.80;;;5.53;;
8982;SDS011;20979;59.850;10.660;2023-11-18T14:57:39;8.00;;;6.00;;
8982;SDS011;20979;59.850;10.660;2023-11-18T15:00:09;8.23;;;6.13;;
8982;SDS011;20979;59.850;10.660;2023-11-18T15:02:44;8.67;;;5.47;;
8982;SDS011;20979;59.850;10.660;2023-11-18T15:05:12;7.63;;;5.67;;
8982;SDS011;20979;59.850;10.660;2023-11-18T15:07:43;8.60;;;6.07;;
8982;SDS011;20979;59.850;10.660;2023-11-18T15:10:12;7.23;;;5.37;;